Aviation Digital Data Service (ADDS)

Output produced by METARs form (2130 UTC 16 February 2019)
found at http://www.aviationweather.gov/metar/data/
 
METAR text: EKSP 162120Z 24010KT 4000 BR BKN006 BKN028 07/06 Q1021
Conditions at: EKSP (SKRYDSTRUP(DAN-A, DK) observed 2120 UTC 16 February 2019
Temperature: 7.0°C (45°F)
Dewpoint: 6.0°C (43°F) [RH = 93%]
Pressure (altimeter): 30.15 inches Hg (1021.0 mb)
Winds: from the WSW (240 degrees) at 12 MPH (10 knots; 5.1 m/s)
Visibility: 2.49 miles (4.01 km)
Ceiling: 600 feet AGL
Clouds: broken clouds at 600 feet AGL
broken clouds at 2800 feet AGL
Weather: BR  (mist)

METAR text: EKSP 162050Z 24009KT 4000 BR BKN006 BKN028 07/06 Q1021
Conditions at: EKSP (SKRYDSTRUP(DAN-A, DK) observed 2050 UTC 16 February 2019
Temperature: 7.0°C (45°F)
Dewpoint: 6.0°C (43°F) [RH = 93%]
Pressure (altimeter): 30.15 inches Hg (1021.0 mb)
Winds: from the WSW (240 degrees) at 10 MPH (9 knots; 4.6 m/s)
Visibility: 2.49 miles (4.01 km)
Ceiling: 600 feet AGL
Clouds: broken clouds at 600 feet AGL
broken clouds at 2800 feet AGL
Weather: BR  (mist)

METAR text: EKSP 162026Z 23011KT 4000 BR BKN006 BKN028 07/06 Q1021
Conditions at: EKSP (SKRYDSTRUP(DAN-A, DK) observed 2026 UTC 16 February 2019
Temperature: 7.0°C (45°F)
Dewpoint: 6.0°C (43°F) [RH = 93%]
Pressure (altimeter): 30.15 inches Hg (1021.0 mb)
Winds: from the SW (230 degrees) at 13 MPH (11 knots; 5.7 m/s)
Visibility: 2.49 miles (4.01 km)
Ceiling: 600 feet AGL
Clouds: broken clouds at 600 feet AGL
broken clouds at 2800 feet AGL
Weather: BR  (mist)

METAR text: EKSP 162020Z 23012KT 5000 BR BKN006 BKN028 07/06 Q1021
Conditions at: EKSP (SKRYDSTRUP(DAN-A, DK) observed 2020 UTC 16 February 2019
Temperature: 7.0°C (45°F)
Dewpoint: 6.0°C (43°F) [RH = 93%]
Pressure (altimeter): 30.15 inches Hg (1021.0 mb)
Winds: from the SW (230 degrees) at 14 MPH (12 knots; 6.2 m/s)
Visibility: 3 miles ( 5 km)
Ceiling: 600 feet AGL
Clouds: broken clouds at 600 feet AGL
broken clouds at 2800 feet AGL
Weather: BR  (mist)

METAR text: EKSP 161950Z 23010KT 5000 BR SCT006 BKN030 07/06 Q1021
Conditions at: EKSP (SKRYDSTRUP(DAN-A, DK) observed 1950 UTC 16 February 2019
Temperature: 7.0°C (45°F)
Dewpoint: 6.0°C (43°F) [RH = 93%]
Pressure (altimeter): 30.15 inches Hg (1021.0 mb)
Winds: from the SW (230 degrees) at 12 MPH (10 knots; 5.1 m/s)
Visibility: 3 miles ( 5 km)
Ceiling: 3000 feet AGL
Clouds: scattered clouds at 600 feet AGL
broken clouds at 3000 feet AGL
Weather: BR  (mist)

METAR text: EKSP 161920Z 24011KT 5000 BR SCT005 BKN031 07/06 Q1021
Conditions at: EKSP (SKRYDSTRUP(DAN-A, DK) observed 1920 UTC 16 February 2019
Temperature: 7.0°C (45°F)
Dewpoint: 6.0°C (43°F) [RH = 93%]
Pressure (altimeter): 30.15 inches Hg (1021.0 mb)
Winds: from the WSW (240 degrees) at 13 MPH (11 knots; 5.7 m/s)
Visibility: 3 miles ( 5 km)
Ceiling: 3100 feet AGL
Clouds: scattered clouds at 500 feet AGL
broken clouds at 3100 feet AGL
Weather: BR  (mist)

METAR text: EKSP 161850Z 24012KT 5000 BR SCT005 BKN031 07/06 Q1021
Conditions at: EKSP (SKRYDSTRUP(DAN-A, DK) observed 1850 UTC 16 February 2019
Temperature: 7.0°C (45°F)
Dewpoint: 6.0°C (43°F) [RH = 93%]
Pressure (altimeter): 30.15 inches Hg (1021.0 mb)
Winds: from the WSW (240 degrees) at 14 MPH (12 knots; 6.2 m/s)
Visibility: 3 miles ( 5 km)
Ceiling: 3100 feet AGL
Clouds: scattered clouds at 500 feet AGL
broken clouds at 3100 feet AGL
Weather: BR  (mist)

METAR text: EKSP 161820Z 24010KT 6000 FEW006 BKN030 07/06 Q1021
Conditions at: EKSP (SKRYDSTRUP(DAN-A, DK) observed 1820 UTC 16 February 2019
Temperature: 7.0°C (45°F)
Dewpoint: 6.0°C (43°F) [RH = 93%]
Pressure (altimeter): 30.15 inches Hg (1021.0 mb)
Winds: from the WSW (240 degrees) at 12 MPH (10 knots; 5.1 m/s)
Visibility: 4 miles ( 6 km)
Ceiling: 3000 feet AGL
Clouds: few clouds at 600 feet AGL
broken clouds at 3000 feet AGL
Weather: no significant weather observed at this time

METAR text: EKSP 161801Z 24011KT 6000 FEW007 BKN026 07/06 Q1021
Conditions at: EKSP (SKRYDSTRUP(DAN-A, DK) observed 1801 UTC 16 February 2019
Temperature: 7.0°C (45°F)
Dewpoint: 6.0°C (43°F) [RH = 93%]
Pressure (altimeter): 30.15 inches Hg (1021.0 mb)
Winds: from the WSW (240 degrees) at 13 MPH (11 knots; 5.7 m/s)
Visibility: 4 miles ( 6 km)
Ceiling: 2600 feet AGL
Clouds: few clouds at 700 feet AGL
broken clouds at 2600 feet AGL
Weather: no significant weather observed at this time

METAR text: EKSP 161750Z 24011KT 5000 BR FEW007 BKN026 07/06 Q1021
Conditions at: EKSP (SKRYDSTRUP(DAN-A, DK) observed 1750 UTC 16 February 2019
Temperature: 7.0°C (45°F)
Dewpoint: 6.0°C (43°F) [RH = 93%]
Pressure (altimeter): 30.15 inches Hg (1021.0 mb)
Winds: from the WSW (240 degrees) at 13 MPH (11 knots; 5.7 m/s)
Visibility: 3 miles ( 5 km)
Ceiling: 2600 feet AGL
Clouds: few clouds at 700 feet AGL
broken clouds at 2600 feet AGL
Weather: BR  (mist)

METAR text: EKSP 161720Z 25011KT 6000 FEW007 BKN023 07/06 Q1021
Conditions at: EKSP (SKRYDSTRUP(DAN-A, DK) observed 1720 UTC 16 February 2019
Temperature: 7.0°C (45°F)
Dewpoint: 6.0°C (43°F) [RH = 93%]
Pressure (altimeter): 30.15 inches Hg (1021.0 mb)
Winds: from the WSW (250 degrees) at 13 MPH (11 knots; 5.7 m/s)
Visibility: 4 miles ( 6 km)
Ceiling: 2300 feet AGL
Clouds: few clouds at 700 feet AGL
broken clouds at 2300 feet AGL
Weather: no significant weather observed at this time

METAR text: EKSP 161708Z 24011KT 6000 FEW007 BKN023 07/06 Q1020
Conditions at: EKSP (SKRYDSTRUP(DAN-A, DK) observed 1708 UTC 16 February 2019
Temperature: 7.0°C (45°F)
Dewpoint: 6.0°C (43°F) [RH = 93%]
Pressure (altimeter): 30.12 inches Hg (1020.0 mb)
Winds: from the WSW (240 degrees) at 13 MPH (11 knots; 5.7 m/s)
Visibility: 4 miles ( 6 km)
Ceiling: 2300 feet AGL
Clouds: few clouds at 700 feet AGL
broken clouds at 2300 feet AGL
Weather: no significant weather observed at this time

METAR text: EKSP 161650Z 24011KT 8000 FEW007 BKN023 07/06 Q1020
Conditions at: EKSP (SKRYDSTRUP(DAN-A, DK) observed 1650 UTC 16 February 2019
Temperature: 7.0°C (45°F)
Dewpoint: 6.0°C (43°F) [RH = 93%]
Pressure (altimeter): 30.12 inches Hg (1020.0 mb)
Winds: from the WSW (240 degrees) at 13 MPH (11 knots; 5.7 m/s)
Visibility: 5 miles ( 8 km)
Ceiling: 2300 feet AGL
Clouds: few clouds at 700 feet AGL
broken clouds at 2300 feet AGL
Weather: no significant weather observed at this time

METAR text: EKSP 161620Z 25011KT 9000 FEW009 BKN024 07/06 Q1020
Conditions at: EKSP (SKRYDSTRUP(DAN-A, DK) observed 1620 UTC 16 February 2019
Temperature: 7.0°C (45°F)
Dewpoint: 6.0°C (43°F) [RH = 93%]
Pressure (altimeter): 30.12 inches Hg (1020.0 mb)
Winds: from the WSW (250 degrees) at 13 MPH (11 knots; 5.7 m/s)
Visibility: 6 miles ( 9 km)
Ceiling: 2400 feet AGL
Clouds: few clouds at 900 feet AGL
broken clouds at 2400 feet AGL
Weather: no significant weather observed at this time

METAR text: EKSP 161550Z 25011KT 9999 FEW011 BKN030 07/06 Q1020
Conditions at: EKSP (SKRYDSTRUP(DAN-A, DK) observed 1550 UTC 16 February 2019
Temperature: 7.0°C (45°F)
Dewpoint: 6.0°C (43°F) [RH = 93%]
Pressure (altimeter): 30.12 inches Hg (1020.0 mb)
Winds: from the WSW (250 degrees) at 13 MPH (11 knots; 5.7 m/s)
Visibility: 6 or more miles (10+ km)
Ceiling: 3000 feet AGL
Clouds: few clouds at 1100 feet AGL
broken clouds at 3000 feet AGL
Weather: no significant weather observed at this time

METAR text: EKSP 161520Z 25014KT 9999 FEW011 SCT028 08/06 Q1020
Conditions at: EKSP (SKRYDSTRUP(DAN-A, DK) observed 1520 UTC 16 February 2019
Temperature: 8.0°C (46°F)
Dewpoint: 6.0°C (43°F) [RH = 87%]
Pressure (altimeter): 30.12 inches Hg (1020.0 mb)
Winds: from the WSW (250 degrees) at 16 MPH (14 knots; 7.2 m/s)
Visibility: 6 or more miles (10+ km)
Ceiling: at least 12,000 feet AGL
Clouds: few clouds at 1100 feet AGL
scattered clouds at 2800 feet AGL
Weather: no significant weather observed at this time

METAR text: EKSP 161450Z 25012KT 9999 SCT012 SCT240 08/06 Q1020
Conditions at: EKSP (SKRYDSTRUP(DAN-A, DK) observed 1450 UTC 16 February 2019
Temperature: 8.0°C (46°F)
Dewpoint: 6.0°C (43°F) [RH = 87%]
Pressure (altimeter): 30.12 inches Hg (1020.0 mb)
Winds: from the WSW (250 degrees) at 14 MPH (12 knots; 6.2 m/s)
Visibility: 6 or more miles (10+ km)
Ceiling: at least 12,000 feet AGL
Clouds: scattered clouds at 1200 feet AGL
scattered clouds at 24000 feet AGL
Weather: no significant weather observed at this time

METAR text: EKSP 161420Z 25014KT 9999 SCT030 08/06 Q1020
Conditions at: EKSP (SKRYDSTRUP(DAN-A, DK) observed 1420 UTC 16 February 2019
Temperature: 8.0°C (46°F)
Dewpoint: 6.0°C (43°F) [RH = 87%]
Pressure (altimeter): 30.12 inches Hg (1020.0 mb)
Winds: from the WSW (250 degrees) at 16 MPH (14 knots; 7.2 m/s)
Visibility: 6 or more miles (10+ km)
Ceiling: at least 12,000 feet AGL
Clouds: scattered clouds at 3000 feet AGL
Weather: no significant weather observed at this time

METAR text: EKSP 161350Z 24015KT 9999 FEW030 09/06 Q1020
Conditions at: EKSP (SKRYDSTRUP(DAN-A, DK) observed 1350 UTC 16 February 2019
Temperature: 9.0°C (48°F)
Dewpoint: 6.0°C (43°F) [RH = 81%]
Pressure (altimeter): 30.12 inches Hg (1020.0 mb)
Winds: from the WSW (240 degrees) at 17 MPH (15 knots; 7.7 m/s)
Visibility: 6 or more miles (10+ km)
Ceiling: at least 12,000 feet AGL
Clouds: few clouds at 3000 feet AGL
Weather: no significant weather observed at this time

METAR text: EKSP 161320Z 25017KT CAVOK 09/05 Q1020 RMK FEW250
Conditions at: EKSP (SKRYDSTRUP(DAN-A, DK) observed 1320 UTC 16 February 2019
Temperature: 9.0°C (48°F)
Dewpoint: 5.0°C (41°F) [RH = 76%]
Pressure (altimeter): 30.12 inches Hg (1020.0 mb)
Winds: from the WSW (250 degrees) at 20 MPH (17 knots; 8.7 m/s)
Visibility: 6 or more miles (10+ km)
Ceiling: ceiling and visibility are OK
Clouds: unknown
Weather: no significant weather observed at this time

METAR text: EKSP 161250Z 25016KT CAVOK 09/06 Q1020 RMK FEW250
Conditions at: EKSP (SKRYDSTRUP(DAN-A, DK) observed 1250 UTC 16 February 2019
Temperature: 9.0°C (48°F)
Dewpoint: 6.0°C (43°F) [RH = 81%]
Pressure (altimeter): 30.12 inches Hg (1020.0 mb)
Winds: from the WSW (250 degrees) at 18 MPH (16 knots; 8.2 m/s)
Visibility: 6 or more miles (10+ km)
Ceiling: ceiling and visibility are OK
Clouds: unknown
Weather: no significant weather observed at this time

METAR text: EKSP 161220Z 25017KT CAVOK 09/05 Q1020 RMK FEW250
Conditions at: EKSP (SKRYDSTRUP(DAN-A, DK) observed 1220 UTC 16 February 2019
Temperature: 9.0°C (48°F)
Dewpoint: 5.0°C (41°F) [RH = 76%]
Pressure (altimeter): 30.12 inches Hg (1020.0 mb)
Winds: from the WSW (250 degrees) at 20 MPH (17 knots; 8.7 m/s)
Visibility: 6 or more miles (10+ km)
Ceiling: ceiling and visibility are OK
Clouds: unknown
Weather: no significant weather observed at this time

METAR text: EKSP 161150Z 24014KT CAVOK 09/05 Q1020 RMK FEW250
Conditions at: EKSP (SKRYDSTRUP(DAN-A, DK) observed 1150 UTC 16 February 2019
Temperature: 9.0°C (48°F)
Dewpoint: 5.0°C (41°F) [RH = 76%]
Pressure (altimeter): 30.12 inches Hg (1020.0 mb)
Winds: from the WSW (240 degrees) at 16 MPH (14 knots; 7.2 m/s)
Visibility: 6 or more miles (10+ km)
Ceiling: ceiling and visibility are OK
Clouds: unknown
Weather: no significant weather observed at this time

METAR text: EKSP 161120Z 23011KT CAVOK 10/04 Q1020 RMK SCT250
Conditions at: EKSP (SKRYDSTRUP(DAN-A, DK) observed 1120 UTC 16 February 2019
Temperature: 10.0°C (50°F)
Dewpoint: 4.0°C (39°F) [RH = 66%]
Pressure (altimeter): 30.12 inches Hg (1020.0 mb)
Winds: from the SW (230 degrees) at 13 MPH (11 knots; 5.7 m/s)
Visibility: 6 or more miles (10+ km)
Ceiling: ceiling and visibility are OK
Clouds: unknown
Weather: no significant weather observed at this time

METAR text: EKSP 161050Z 23013KT CAVOK 09/04 Q1020 RMK SCT250
Conditions at: EKSP (SKRYDSTRUP(DAN-A, DK) observed 1050 UTC 16 February 2019
Temperature: 9.0°C (48°F)
Dewpoint: 4.0°C (39°F) [RH = 71%]
Pressure (altimeter): 30.12 inches Hg (1020.0 mb)
Winds: from the SW (230 degrees) at 15 MPH (13 knots; 6.7 m/s)
Visibility: 6 or more miles (10+ km)
Ceiling: ceiling and visibility are OK
Clouds: unknown
Weather: no significant weather observed at this time

METAR text: EKSP 161020Z 22013KT CAVOK 08/04 Q1020 RMK SCT250
Conditions at: EKSP (SKRYDSTRUP(DAN-A, DK) observed 1020 UTC 16 February 2019
Temperature: 8.0°C (46°F)
Dewpoint: 4.0°C (39°F) [RH = 76%]
Pressure (altimeter): 30.12 inches Hg (1020.0 mb)
Winds: from the SW (220 degrees) at 15 MPH (13 knots; 6.7 m/s)
Visibility: 6 or more miles (10+ km)
Ceiling: ceiling and visibility are OK
Clouds: unknown
Weather: no significant weather observed at this time

METAR text: EKSP 160950Z 21012KT CAVOK 07/03 Q1020 RMK SCT250
Conditions at: EKSP (SKRYDSTRUP(DAN-A, DK) observed 0950 UTC 16 February 2019
Temperature: 7.0°C (45°F)
Dewpoint: 3.0°C (37°F) [RH = 76%]
Pressure (altimeter): 30.12 inches Hg (1020.0 mb)
Winds: from the SSW (210 degrees) at 14 MPH (12 knots; 6.2 m/s)
Visibility: 6 or more miles (10+ km)
Ceiling: ceiling and visibility are OK
Clouds: unknown
Weather: no significant weather observed at this time

METAR text: EKSP 160920Z 21012KT CAVOK 06/03 Q1020 RMK SCT250
Conditions at: EKSP (SKRYDSTRUP(DAN-A, DK) observed 0920 UTC 16 February 2019
Temperature: 6.0°C (43°F)
Dewpoint: 3.0°C (37°F) [RH = 81%]
Pressure (altimeter): 30.12 inches Hg (1020.0 mb)
Winds: from the SSW (210 degrees) at 14 MPH (12 knots; 6.2 m/s)
Visibility: 6 or more miles (10+ km)
Ceiling: ceiling and visibility are OK
Clouds: unknown
Weather: no significant weather observed at this time

METAR text: EKSP 160850Z 21010KT CAVOK 06/02 Q1020 RMK SCT250
Conditions at: EKSP (SKRYDSTRUP(DAN-A, DK) observed 0850 UTC 16 February 2019
Temperature: 6.0°C (43°F)
Dewpoint: 2.0°C (36°F) [RH = 75%]
Pressure (altimeter): 30.12 inches Hg (1020.0 mb)
Winds: from the SSW (210 degrees) at 12 MPH (10 knots; 5.1 m/s)
Visibility: 6 or more miles (10+ km)
Ceiling: ceiling and visibility are OK
Clouds: unknown
Weather: no significant weather observed at this time

METAR text: EKSP 160820Z 21010KT CAVOK 05/02 Q1020 RMK SCT250
Conditions at: EKSP (SKRYDSTRUP(DAN-A, DK) observed 0820 UTC 16 February 2019
Temperature: 5.0°C (41°F)
Dewpoint: 2.0°C (36°F) [RH = 81%]
Pressure (altimeter): 30.12 inches Hg (1020.0 mb)
Winds: from the SSW (210 degrees) at 12 MPH (10 knots; 5.1 m/s)
Visibility: 6 or more miles (10+ km)
Ceiling: ceiling and visibility are OK
Clouds: unknown
Weather: no significant weather observed at this time

METAR text: EKSP 160750Z 21008KT CAVOK 04/01 Q1020 RMK FEW250
Conditions at: EKSP (SKRYDSTRUP(DAN-A, DK) observed 0750 UTC 16 February 2019
Temperature: 4.0°C (39°F)
Dewpoint: 1.0°C (34°F) [RH = 81%]
Pressure (altimeter): 30.12 inches Hg (1020.0 mb)
Winds: from the SSW (210 degrees) at 9 MPH (8 knots; 4.1 m/s)
Visibility: 6 or more miles (10+ km)
Ceiling: ceiling and visibility are OK
Clouds: unknown
Weather: no significant weather observed at this time

METAR text: EKSP 160720Z 21006KT CAVOK 03/01 Q1020 RMK FEW250
Conditions at: EKSP (SKRYDSTRUP(DAN-A, DK) observed 0720 UTC 16 February 2019
Temperature: 3.0°C (37°F)
Dewpoint: 1.0°C (34°F) [RH = 87%]
Pressure (altimeter): 30.12 inches Hg (1020.0 mb)
Winds: from the SSW (210 degrees) at 7 MPH (6 knots; 3.1 m/s)
Visibility: 6 or more miles (10+ km)
Ceiling: ceiling and visibility are OK
Clouds: unknown
Weather: no significant weather observed at this time

METAR text: EKSP 160650Z 20006KT CAVOK 03/00 Q1020 RMK SKC
Conditions at: EKSP (SKRYDSTRUP(DAN-A, DK) observed 0650 UTC 16 February 2019
Temperature: 3.0°C (37°F)
Dewpoint: 0.0°C (32°F) [RH = 81%]
Pressure (altimeter): 30.12 inches Hg (1020.0 mb)
Winds: from the SSW (200 degrees) at 7 MPH (6 knots; 3.1 m/s)
Visibility: 6 or more miles (10+ km)
Ceiling: ceiling and visibility are OK
Clouds: unknown
Weather: no significant weather observed at this time

METAR text: EKSP 160620Z 20008KT CAVOK 03/00 Q1020 RMK SKC
Conditions at: EKSP (SKRYDSTRUP(DAN-A, DK) observed 0620 UTC 16 February 2019
Temperature: 3.0°C (37°F)
Dewpoint: 0.0°C (32°F) [RH = 81%]
Pressure (altimeter): 30.12 inches Hg (1020.0 mb)
Winds: from the SSW (200 degrees) at 9 MPH (8 knots; 4.1 m/s)
Visibility: 6 or more miles (10+ km)
Ceiling: ceiling and visibility are OK
Clouds: unknown
Weather: no significant weather observed at this time

METAR text: EKSP 160550Z 21008KT CAVOK 03/00 Q1020 RMK SKC
Conditions at: EKSP (SKRYDSTRUP(DAN-A, DK) observed 0550 UTC 16 February 2019
Temperature: 3.0°C (37°F)
Dewpoint: 0.0°C (32°F) [RH = 81%]
Pressure (altimeter): 30.12 inches Hg (1020.0 mb)
Winds: from the SSW (210 degrees) at 9 MPH (8 knots; 4.1 m/s)
Visibility: 6 or more miles (10+ km)
Ceiling: ceiling and visibility are OK
Clouds: unknown
Weather: no significant weather observed at this time

METAR text: EKSP 160520Z 21009KT CAVOK 03/00 Q1021 RMK FEW250
Conditions at: EKSP (SKRYDSTRUP(DAN-A, DK) observed 0520 UTC 16 February 2019
Temperature: 3.0°C (37°F)
Dewpoint: 0.0°C (32°F) [RH = 81%]
Pressure (altimeter): 30.15 inches Hg (1021.0 mb)
Winds: from the SSW (210 degrees) at 10 MPH (9 knots; 4.6 m/s)
Visibility: 6 or more miles (10+ km)
Ceiling: ceiling and visibility are OK
Clouds: unknown
Weather: no significant weather observed at this time

METAR text: EKSP 160450Z 21008KT CAVOK 03/00 Q1021 RMK FEW250
Conditions at: EKSP (SKRYDSTRUP(DAN-A, DK) observed 0450 UTC 16 February 2019
Temperature: 3.0°C (37°F)
Dewpoint: 0.0°C (32°F) [RH = 81%]
Pressure (altimeter): 30.15 inches Hg (1021.0 mb)
Winds: from the SSW (210 degrees) at 9 MPH (8 knots; 4.1 m/s)
Visibility: 6 or more miles (10+ km)
Ceiling: ceiling and visibility are OK
Clouds: unknown
Weather: no significant weather observed at this time

METAR text: EKSP 160420Z 20005KT CAVOK 04/00 Q1021 RMK FEW250
Conditions at: EKSP (SKRYDSTRUP(DAN-A, DK) observed 0420 UTC 16 February 2019
Temperature: 4.0°C (39°F)
Dewpoint: 0.0°C (32°F) [RH = 75%]
Pressure (altimeter): 30.15 inches Hg (1021.0 mb)
Winds: from the SSW (200 degrees) at 6 MPH (5 knots; 2.6 m/s)
Visibility: 6 or more miles (10+ km)
Ceiling: ceiling and visibility are OK
Clouds: unknown
Weather: no significant weather observed at this time

METAR text: EKSP 160350Z 21004KT CAVOK 04/01 Q1021 RMK FEW250
Conditions at: EKSP (SKRYDSTRUP(DAN-A, DK) observed 0350 UTC 16 February 2019
Temperature: 4.0°C (39°F)
Dewpoint: 1.0°C (34°F) [RH = 81%]
Pressure (altimeter): 30.15 inches Hg (1021.0 mb)
Winds: from the SSW (210 degrees) at 5 MPH (4 knots; 2.1 m/s)
Visibility: 6 or more miles (10+ km)
Ceiling: ceiling and visibility are OK
Clouds: unknown
Weather: no significant weather observed at this time

METAR text: EKSP 160320Z 20005KT CAVOK 04/00 Q1022 RMK FEW250
Conditions at: EKSP (SKRYDSTRUP(DAN-A, DK) observed 0320 UTC 16 February 2019
Temperature: 4.0°C (39°F)
Dewpoint: 0.0°C (32°F) [RH = 75%]
Pressure (altimeter): 30.18 inches Hg (1022.0 mb)
Winds: from the SSW (200 degrees) at 6 MPH (5 knots; 2.6 m/s)
Visibility: 6 or more miles (10+ km)
Ceiling: ceiling and visibility are OK
Clouds: unknown
Weather: no significant weather observed at this time

METAR text: EKSP 160250Z 19007KT CAVOK 04/00 Q1022 RMK FEW250
Conditions at: EKSP (SKRYDSTRUP(DAN-A, DK) observed 0250 UTC 16 February 2019
Temperature: 4.0°C (39°F)
Dewpoint: 0.0°C (32°F) [RH = 75%]
Pressure (altimeter): 30.18 inches Hg (1022.0 mb)
Winds: from the S (190 degrees) at 8 MPH (7 knots; 3.6 m/s)
Visibility: 6 or more miles (10+ km)
Ceiling: ceiling and visibility are OK
Clouds: unknown
Weather: no significant weather observed at this time

METAR text: EKSP 160220Z 19008KT CAVOK 04/00 Q1022 RMK FEW250
Conditions at: EKSP (SKRYDSTRUP(DAN-A, DK) observed 0220 UTC 16 February 2019
Temperature: 4.0°C (39°F)
Dewpoint: 0.0°C (32°F) [RH = 75%]
Pressure (altimeter): 30.18 inches Hg (1022.0 mb)
Winds: from the S (190 degrees) at 9 MPH (8 knots; 4.1 m/s)
Visibility: 6 or more miles (10+ km)
Ceiling: ceiling and visibility are OK
Clouds: unknown
Weather: no significant weather observed at this time

METAR text: EKSP 160150Z 19006KT CAVOK 03/M00 Q1023 RMK FEW250
Conditions at: EKSP (SKRYDSTRUP(DAN-A, DK) observed 0150 UTC 16 February 2019
Temperature: 3.0°C (37°F)
Dewpoint: 0.0°C (32°F) [RH = 81%]
Pressure (altimeter): 30.21 inches Hg (1023.0 mb)
Winds: from the S (190 degrees) at 7 MPH (6 knots; 3.1 m/s)
Visibility: 6 or more miles (10+ km)
Ceiling: ceiling and visibility are OK
Clouds: unknown
Weather: no significant weather observed at this time

METAR text: EKSP 160120Z 19008KT CAVOK 04/00 Q1023 RMK FEW250
Conditions at: EKSP (SKRYDSTRUP(DAN-A, DK) observed 0120 UTC 16 February 2019
Temperature: 4.0°C (39°F)
Dewpoint: 0.0°C (32°F) [RH = 75%]
Pressure (altimeter): 30.21 inches Hg (1023.0 mb)
Winds: from the S (190 degrees) at 9 MPH (8 knots; 4.1 m/s)
Visibility: 6 or more miles (10+ km)
Ceiling: ceiling and visibility are OK
Clouds: unknown
Weather: no significant weather observed at this time

METAR text: EKSP 160050Z 19007KT CAVOK 04/00 Q1023 RMK FEW250
Conditions at: EKSP (SKRYDSTRUP(DAN-A, DK) observed 0050 UTC 16 February 2019
Temperature: 4.0°C (39°F)
Dewpoint: 0.0°C (32°F) [RH = 75%]
Pressure (altimeter): 30.21 inches Hg (1023.0 mb)
Winds: from the S (190 degrees) at 8 MPH (7 knots; 3.6 m/s)
Visibility: 6 or more miles (10+ km)
Ceiling: ceiling and visibility are OK
Clouds: unknown
Weather: no significant weather observed at this time

METAR text: EKSP 160020Z 19008KT CAVOK 04/00 Q1024 RMK FEW250
Conditions at: EKSP (SKRYDSTRUP(DAN-A, DK) observed 0020 UTC 16 February 2019
Temperature: 4.0°C (39°F)
Dewpoint: 0.0°C (32°F) [RH = 75%]
Pressure (altimeter): 30.24 inches Hg (1024.0 mb)
Winds: from the S (190 degrees) at 9 MPH (8 knots; 4.1 m/s)
Visibility: 6 or more miles (10+ km)
Ceiling: ceiling and visibility are OK
Clouds: unknown
Weather: no significant weather observed at this time

METAR text: EKSP 152350Z 18006KT CAVOK 04/00 Q1024 RMK FEW250
Conditions at: EKSP (SKRYDSTRUP(DAN-A, DK) observed 2350 UTC 15 February 2019
Temperature: 4.0°C (39°F)
Dewpoint: 0.0°C (32°F) [RH = 75%]
Pressure (altimeter): 30.24 inches Hg (1024.0 mb)
Winds: from the S (180 degrees) at 7 MPH (6 knots; 3.1 m/s)
Visibility: 6 or more miles (10+ km)
Ceiling: ceiling and visibility are OK
Clouds: unknown
Weather: no significant weather observed at this time

METAR text: EKSP 152320Z 19007KT CAVOK 04/00 Q1024 RMK FEW200
Conditions at: EKSP (SKRYDSTRUP(DAN-A, DK) observed 2320 UTC 15 February 2019
Temperature: 4.0°C (39°F)
Dewpoint: 0.0°C (32°F) [RH = 75%]
Pressure (altimeter): 30.24 inches Hg (1024.0 mb)
Winds: from the S (190 degrees) at 8 MPH (7 knots; 3.6 m/s)
Visibility: 6 or more miles (10+ km)
Ceiling: ceiling and visibility are OK
Clouds: unknown
Weather: no significant weather observed at this time

METAR text: EKSP 152250Z 18006KT CAVOK 04/00 Q1024 RMK FEW200
Conditions at: EKSP (SKRYDSTRUP(DAN-A, DK) observed 2250 UTC 15 February 2019
Temperature: 4.0°C (39°F)
Dewpoint: 0.0°C (32°F) [RH = 75%]
Pressure (altimeter): 30.24 inches Hg (1024.0 mb)
Winds: from the S (180 degrees) at 7 MPH (6 knots; 3.1 m/s)
Visibility: 6 or more miles (10+ km)
Ceiling: ceiling and visibility are OK
Clouds: unknown
Weather: no significant weather observed at this time

METAR text: EKSP 152220Z 18006KT CAVOK 04/01 Q1025 RMK FEW200
Conditions at: EKSP (SKRYDSTRUP(DAN-A, DK) observed 2220 UTC 15 February 2019
Temperature: 4.0°C (39°F)
Dewpoint: 1.0°C (34°F) [RH = 81%]
Pressure (altimeter): 30.27 inches Hg (1025.0 mb)
Winds: from the S (180 degrees) at 7 MPH (6 knots; 3.1 m/s)
Visibility: 6 or more miles (10+ km)
Ceiling: ceiling and visibility are OK
Clouds: unknown
Weather: no significant weather observed at this time

METAR text: EKSP 152150Z 18005KT CAVOK 04/01 Q1025 RMK FEW200
Conditions at: EKSP (SKRYDSTRUP(DAN-A, DK) observed 2150 UTC 15 February 2019
Temperature: 4.0°C (39°F)
Dewpoint: 1.0°C (34°F) [RH = 81%]
Pressure (altimeter): 30.27 inches Hg (1025.0 mb)
Winds: from the S (180 degrees) at 6 MPH (5 knots; 2.6 m/s)
Visibility: 6 or more miles (10+ km)
Ceiling: ceiling and visibility are OK
Clouds: unknown
Weather: no significant weather observed at this time

METAR text: EKSP 152120Z 18007KT CAVOK 04/01 Q1025 RMK FEW200
Conditions at: EKSP (SKRYDSTRUP(DAN-A, DK) observed 2120 UTC 15 February 2019
Temperature: 4.0°C (39°F)
Dewpoint: 1.0°C (34°F) [RH = 81%]
Pressure (altimeter): 30.27 inches Hg (1025.0 mb)
Winds: from the S (180 degrees) at 8 MPH (7 knots; 3.6 m/s)
Visibility: 6 or more miles (10+ km)
Ceiling: ceiling and visibility are OK
Clouds: unknown
Weather: no significant weather observed at this time

METAR text: EKSP 152050Z 19007KT CAVOK 04/00 Q1025 RMK FEW200
Conditions at: EKSP (SKRYDSTRUP(DAN-A, DK) observed 2050 UTC 15 February 2019
Temperature: 4.0°C (39°F)
Dewpoint: 0.0°C (32°F) [RH = 75%]
Pressure (altimeter): 30.27 inches Hg (1025.0 mb)
Winds: from the S (190 degrees) at 8 MPH (7 knots; 3.6 m/s)
Visibility: 6 or more miles (10+ km)
Ceiling: ceiling and visibility are OK
Clouds: unknown
Weather: no significant weather observed at this time

METAR text: EKSP 152020Z 18007KT CAVOK 04/00 Q1026 RMK FEW200
Conditions at: EKSP (SKRYDSTRUP(DAN-A, DK) observed 2020 UTC 15 February 2019
Temperature: 4.0°C (39°F)
Dewpoint: 0.0°C (32°F) [RH = 75%]
Pressure (altimeter): 30.30 inches Hg (1026.0 mb)
Winds: from the S (180 degrees) at 8 MPH (7 knots; 3.6 m/s)
Visibility: 6 or more miles (10+ km)
Ceiling: ceiling and visibility are OK
Clouds: unknown
Weather: no significant weather observed at this time

METAR text: EKSP 151950Z 18007KT CAVOK 04/M00 Q1026 RMK FEW200
Conditions at: EKSP (SKRYDSTRUP(DAN-A, DK) observed 1950 UTC 15 February 2019
Temperature: 4.0°C (39°F)
Dewpoint: 0.0°C (32°F) [RH = 75%]
Pressure (altimeter): 30.30 inches Hg (1026.0 mb)
Winds: from the S (180 degrees) at 8 MPH (7 knots; 3.6 m/s)
Visibility: 6 or more miles (10+ km)
Ceiling: ceiling and visibility are OK
Clouds: unknown
Weather: no significant weather observed at this time

METAR text: EKSP 151920Z 18007KT CAVOK 03/M01 Q1027 RMK FEW200
Conditions at: EKSP (SKRYDSTRUP(DAN-A, DK) observed 1920 UTC 15 February 2019
Temperature: 3.0°C (37°F)
Dewpoint: -1.0°C (30°F) [RH = 75%]
Pressure (altimeter): 30.32 inches Hg (1027.0 mb)
Winds: from the S (180 degrees) at 8 MPH (7 knots; 3.6 m/s)
Visibility: 6 or more miles (10+ km)
Ceiling: ceiling and visibility are OK
Clouds: unknown
Weather: no significant weather observed at this time

METAR text: EKSP 151850Z 19005KT CAVOK 04/M01 Q1027 RMK FEW200
Conditions at: EKSP (SKRYDSTRUP(DAN-A, DK) observed 1850 UTC 15 February 2019
Temperature: 4.0°C (39°F)
Dewpoint: -1.0°C (30°F) [RH = 70%]
Pressure (altimeter): 30.32 inches Hg (1027.0 mb)
Winds: from the S (190 degrees) at 6 MPH (5 knots; 2.6 m/s)
Visibility: 6 or more miles (10+ km)
Ceiling: ceiling and visibility are OK
Clouds: unknown
Weather: no significant weather observed at this time

METAR text: EKSP 151820Z 20003KT CAVOK 04/M01 Q1027 RMK FEW200
Conditions at: EKSP (SKRYDSTRUP(DAN-A, DK) observed 1820 UTC 15 February 2019
Temperature: 4.0°C (39°F)
Dewpoint: -1.0°C (30°F) [RH = 70%]
Pressure (altimeter): 30.32 inches Hg (1027.0 mb)
Winds: from the SSW (200 degrees) at 3 MPH (3 knots; 1.5 m/s)
Visibility: 6 or more miles (10+ km)
Ceiling: ceiling and visibility are OK
Clouds: unknown
Weather: no significant weather observed at this time

METAR text: EKSP 151750Z 20004KT CAVOK 04/M01 Q1027 RMK FEW200
Conditions at: EKSP (SKRYDSTRUP(DAN-A, DK) observed 1750 UTC 15 February 2019
Temperature: 4.0°C (39°F)
Dewpoint: -1.0°C (30°F) [RH = 70%]
Pressure (altimeter): 30.32 inches Hg (1027.0 mb)
Winds: from the SSW (200 degrees) at 5 MPH (4 knots; 2.1 m/s)
Visibility: 6 or more miles (10+ km)
Ceiling: ceiling and visibility are OK
Clouds: unknown
Weather: no significant weather observed at this time

METAR text: EKSP 151720Z 19004KT CAVOK 06/M01 Q1027 RMK FEW200
Conditions at: EKSP (SKRYDSTRUP(DAN-A, DK) observed 1720 UTC 15 February 2019
Temperature: 6.0°C (43°F)
Dewpoint: -1.0°C (30°F) [RH = 61%]
Pressure (altimeter): 30.32 inches Hg (1027.0 mb)
Winds: from the S (190 degrees) at 5 MPH (4 knots; 2.1 m/s)
Visibility: 6 or more miles (10+ km)
Ceiling: ceiling and visibility are OK
Clouds: unknown
Weather: no significant weather observed at this time

METAR text: EKSP 151650Z 20005KT CAVOK 08/M00 Q1028 RMK FEW200
Conditions at: EKSP (SKRYDSTRUP(DAN-A, DK) observed 1650 UTC 15 February 2019
Temperature: 8.0°C (46°F)
Dewpoint: 0.0°C (32°F) [RH = 57%]
Pressure (altimeter): 30.35 inches Hg (1028.0 mb)
Winds: from the SSW (200 degrees) at 6 MPH (5 knots; 2.6 m/s)
Visibility: 6 or more miles (10+ km)
Ceiling: ceiling and visibility are OK
Clouds: unknown
Weather: no significant weather observed at this time

METAR text: EKSP 151620Z 21005KT CAVOK 08/M00 Q1028 RMK FEW200
Conditions at: EKSP (SKRYDSTRUP(DAN-A, DK) observed 1620 UTC 15 February 2019
Temperature: 8.0°C (46°F)
Dewpoint: 0.0°C (32°F) [RH = 57%]
Pressure (altimeter): 30.35 inches Hg (1028.0 mb)
Winds: from the SSW (210 degrees) at 6 MPH (5 knots; 2.6 m/s)
Visibility: 6 or more miles (10+ km)
Ceiling: ceiling and visibility are OK
Clouds: unknown
Weather: no significant weather observed at this time

METAR text: EKSP 151550Z 20005KT CAVOK 09/00 Q1028 RMK FEW200
Conditions at: EKSP (SKRYDSTRUP(DAN-A, DK) observed 1550 UTC 15 February 2019
Temperature: 9.0°C (48°F)
Dewpoint: 0.0°C (32°F) [RH = 53%]
Pressure (altimeter): 30.35 inches Hg (1028.0 mb)
Winds: from the SSW (200 degrees) at 6 MPH (5 knots; 2.6 m/s)
Visibility: 6 or more miles (10+ km)
Ceiling: ceiling and visibility are OK
Clouds: unknown
Weather: no significant weather observed at this time

METAR text: EKSP 151520Z 19006KT CAVOK 11/M00 Q1028 RMK FEW200
Conditions at: EKSP (SKRYDSTRUP(DAN-A, DK) observed 1520 UTC 15 February 2019
Temperature: 11.0°C (52°F)
Dewpoint: 0.0°C (32°F) [RH = 47%]
Pressure (altimeter): 30.35 inches Hg (1028.0 mb)
Winds: from the S (190 degrees) at 7 MPH (6 knots; 3.1 m/s)
Visibility: 6 or more miles (10+ km)
Ceiling: ceiling and visibility are OK
Clouds: unknown
Weather: no significant weather observed at this time

METAR text: EKSP 151450Z 20008KT CAVOK 11/M00 Q1029 RMK FEW200
Conditions at: EKSP (SKRYDSTRUP(DAN-A, DK) observed 1450 UTC 15 February 2019
Temperature: 11.0°C (52°F)
Dewpoint: 0.0°C (32°F) [RH = 47%]
Pressure (altimeter): 30.38 inches Hg (1029.0 mb)
Winds: from the SSW (200 degrees) at 9 MPH (8 knots; 4.1 m/s)
Visibility: 6 or more miles (10+ km)
Ceiling: ceiling and visibility are OK
Clouds: unknown
Weather: no significant weather observed at this time

METAR text: EKSP 151420Z 21010KT CAVOK 12/00 Q1029 RMK FEW200
Conditions at: EKSP (SKRYDSTRUP(DAN-A, DK) observed 1420 UTC 15 February 2019
Temperature: 12.0°C (54°F)
Dewpoint: 0.0°C (32°F) [RH = 44%]
Pressure (altimeter): 30.38 inches Hg (1029.0 mb)
Winds: from the SSW (210 degrees) at 12 MPH (10 knots; 5.1 m/s)
Visibility: 6 or more miles (10+ km)
Ceiling: ceiling and visibility are OK
Clouds: unknown
Weather: no significant weather observed at this time

METAR text: EKSP 151350Z 21010KT CAVOK 12/02 Q1029 RMK FEW200
Conditions at: EKSP (SKRYDSTRUP(DAN-A, DK) observed 1350 UTC 15 February 2019
Temperature: 12.0°C (54°F)
Dewpoint: 2.0°C (36°F) [RH = 50%]
Pressure (altimeter): 30.38 inches Hg (1029.0 mb)
Winds: from the SSW (210 degrees) at 12 MPH (10 knots; 5.1 m/s)
Visibility: 6 or more miles (10+ km)
Ceiling: ceiling and visibility are OK
Clouds: unknown
Weather: no significant weather observed at this time

METAR text: EKSP 151320Z 21010KT CAVOK 11/02 Q1030 NOSIG RMK FEW200
Conditions at: EKSP (SKRYDSTRUP(DAN-A, DK) observed 1320 UTC 15 February 2019
Temperature: 11.0°C (52°F)
Dewpoint: 2.0°C (36°F) [RH = 54%]
Pressure (altimeter): 30.41 inches Hg (1030.0 mb)
Winds: from the SSW (210 degrees) at 12 MPH (10 knots; 5.1 m/s)
Visibility: 6 or more miles (10+ km)
Ceiling: ceiling and visibility are OK
Clouds: unknown
Weather: no significant weather observed at this time

METAR text: EKSP 151250Z 20009KT CAVOK 11/03 Q1030 NOSIG RMK FEW200
Conditions at: EKSP (SKRYDSTRUP(DAN-A, DK) observed 1250 UTC 15 February 2019
Temperature: 11.0°C (52°F)
Dewpoint: 3.0°C (37°F) [RH = 58%]
Pressure (altimeter): 30.41 inches Hg (1030.0 mb)
Winds: from the SSW (200 degrees) at 10 MPH (9 knots; 4.6 m/s)
Visibility: 6 or more miles (10+ km)
Ceiling: ceiling and visibility are OK
Clouds: unknown
Weather: no significant weather observed at this time

METAR text: EKSP 151220Z 20008KT CAVOK 11/02 Q1030 NOSIG RMK FEW200
Conditions at: EKSP (SKRYDSTRUP(DAN-A, DK) observed 1220 UTC 15 February 2019
Temperature: 11.0°C (52°F)
Dewpoint: 2.0°C (36°F) [RH = 54%]
Pressure (altimeter): 30.41 inches Hg (1030.0 mb)
Winds: from the SSW (200 degrees) at 9 MPH (8 knots; 4.1 m/s)
Visibility: 6 or more miles (10+ km)
Ceiling: ceiling and visibility are OK
Clouds: unknown
Weather: no significant weather observed at this time

METAR text: EKSP 151150Z 19007KT CAVOK 11/02 Q1030 NOSIG RMK FEW200
Conditions at: EKSP (SKRYDSTRUP(DAN-A, DK) observed 1150 UTC 15 February 2019
Temperature: 11.0°C (52°F)
Dewpoint: 2.0°C (36°F) [RH = 54%]
Pressure (altimeter): 30.41 inches Hg (1030.0 mb)
Winds: from the S (190 degrees) at 8 MPH (7 knots; 3.6 m/s)
Visibility: 6 or more miles (10+ km)
Ceiling: ceiling and visibility are OK
Clouds: unknown
Weather: no significant weather observed at this time

METAR text: EKSP 151120Z 20007KT CAVOK 09/02 Q1031 NOSIG RMK FEW200
Conditions at: EKSP (SKRYDSTRUP(DAN-A, DK) observed 1120 UTC 15 February 2019
Temperature: 9.0°C (48°F)
Dewpoint: 2.0°C (36°F) [RH = 61%]
Pressure (altimeter): 30.44 inches Hg (1031.0 mb)
Winds: from the SSW (200 degrees) at 8 MPH (7 knots; 3.6 m/s)
Visibility: 6 or more miles (10+ km)
Ceiling: ceiling and visibility are OK
Clouds: unknown
Weather: no significant weather observed at this time

METAR text: EKSP 151050Z 19007KT CAVOK 08/03 Q1031 NOSIG RMK FEW200
Conditions at: EKSP (SKRYDSTRUP(DAN-A, DK) observed 1050 UTC 15 February 2019
Temperature: 8.0°C (46°F)
Dewpoint: 3.0°C (37°F) [RH = 71%]
Pressure (altimeter): 30.44 inches Hg (1031.0 mb)
Winds: from the S (190 degrees) at 8 MPH (7 knots; 3.6 m/s)
Visibility: 6 or more miles (10+ km)
Ceiling: ceiling and visibility are OK
Clouds: unknown
Weather: no significant weather observed at this time

METAR text: EKSP 151020Z 19006KT CAVOK 08/04 Q1031 NOSIG RMK FEW200
Conditions at: EKSP (SKRYDSTRUP(DAN-A, DK) observed 1020 UTC 15 February 2019
Temperature: 8.0°C (46°F)
Dewpoint: 4.0°C (39°F) [RH = 76%]
Pressure (altimeter): 30.44 inches Hg (1031.0 mb)
Winds: from the S (190 degrees) at 7 MPH (6 knots; 3.1 m/s)
Visibility: 6 or more miles (10+ km)
Ceiling: ceiling and visibility are OK
Clouds: unknown
Weather: no significant weather observed at this time

METAR text: EKSP 150950Z 19005KT CAVOK 06/04 Q1031 NOSIG RMK FEW200
Conditions at: EKSP (SKRYDSTRUP(DAN-A, DK) observed 0950 UTC 15 February 2019
Temperature: 6.0°C (43°F)
Dewpoint: 4.0°C (39°F) [RH = 87%]
Pressure (altimeter): 30.44 inches Hg (1031.0 mb)
Winds: from the S (190 degrees) at 6 MPH (5 knots; 2.6 m/s)
Visibility: 6 or more miles (10+ km)
Ceiling: ceiling and visibility are OK
Clouds: unknown
Weather: no significant weather observed at this time

Forecast for: EKSP (SKRYDSTRUP(DAN-A, DK)
Text: TAF EKSP 162026Z 1621/1718 24010KT 5000 SCT007 BKN025
Forecast period: 2100 UTC 16 February 2019 to 0100 UTC 17 February 2019
Forecast type: FROM: standard forecast or significant change
Winds: from the WSW (240 degrees) at 12 MPH (10 knots; 5.1 m/s)
Visibility: 3 miles (5 km)
Ceiling: 2500 feet AGL
Clouds: scattered clouds at 700 feet AGL
broken clouds at 2500 feet AGL
Weather: no significant weather forecast for this period
Text: TEMPO 1621/1701 0600 FG VV002
Forecast period: 2100 UTC 16 February 2019 to 0100 UTC 17 February 2019
Forecast type: TEMPORARY: The following changes expected for less than half the time period
Visibility: 0.37 miles (0.60 km)
Ceiling: indefinite ceiling with vertical visibility of 200 feet AGL
Clouds: obscured sky
Weather: FG  (fog)
Text: BECMG 1701/1703 8000
Forecast period: 0100 to 1000 UTC 17 February 2019
Forecast type: BECOMING: Conditions expected to become as follows by 0300 UTC 17 February 2019
Winds: from the WSW (240 degrees) at 12 MPH (10 knots; 5.1 m/s)
Visibility: 5 miles (8 km)
Ceiling: 2500 feet AGL
Clouds: scattered clouds at 700 feet AGL
broken clouds at 2500 feet AGL
Weather: no significant weather forecast for this period
Text: TEMPO 1703/1710 2500 BR BKN012
Forecast period: 0300 to 1000 UTC 17 February 2019
Forecast type: TEMPORARY: The following changes expected for less than half the time period
Visibility: 1.55 miles (2.49 km)
Ceiling: 1200 feet AGL
Clouds: broken clouds at 1200 feet AGL
Weather: BR  (mist)
Text: TEMPO 1710/1715 7000 BKN012
Forecast period: 1000 to 1500 UTC 17 February 2019
Forecast type: TEMPORARY: The following changes expected for less than half the time period
Visibility: 4 miles (7 km)
Ceiling: 1200 feet AGL
Clouds: broken clouds at 1200 feet AGL
Weather: no significant weather forecast for this period
Text: BECMG 1710/1713 20008KT
Forecast period: 1000 to 1800 UTC 17 February 2019
Forecast type: BECOMING: Conditions expected to become as follows by 1300 UTC 17 February 2019
Winds: from the SSW (200 degrees) at 9 MPH (8 knots; 4.1 m/s)
Visibility: 5 miles (8 km)
Ceiling: 2500 feet AGL
Clouds: scattered clouds at 700 feet AGL
broken clouds at 2500 feet AGL
Weather: no significant weather forecast for this period